Data for 04/10/2014

Time Sea-Level Adjusted Pressure Absolute Pressure Temperature Relative Humidity Dew Point   
(mb) (inHg) (mb) (inHg) (C) (F) (%) (C) (F)
00:05 1018 30.06 847 25.01 3.5 38.3 54 -5 23.1
00:10 1018 30.06 847 25.01 2.9 37.2 56 -5 22.9
00:15 1018 30.06 847 25.01 2.8 37.1 54 -5.5 22
00:20 1018 30.06 847 25.01 3.1 37.7 54 -5.3 22.4
00:25 1018 30.06 847 25.01 3.3 37.9 51 -6 21.2
00:30 1018 30.06 847 25.01 3.5 38.3 51 -5.7 21.8
00:35 1018 30.06 847 25.01 3.2 37.7 55 -5.1 22.8
00:40 1018 30.06 847 25.01 2.5 36.6 56 -5.4 22.2
00:45 1018 30.06 847 25.01 2.4 36.4 57 -5.2 22.7
00:50 1018 30.06 847 25.01 2.3 36.1 57 -5.3 22.4
00:55 1018 30.06 847 25.01 1.9 35.3 59 -5.3 22.5
01:00 1018 30.06 847 25.01 1.9 35.4 58 -5.4 22.2
01:05 1018 30.06 847 25.01 1.6 34.9 61 -5.2 22.7
01:10 1018 30.06 847 25.01 1.5 34.6 59 -5.8 21.6
01:15 1018 30.06 847 25.01 2.1 35.8 57 -5.6 22
01:20 1018 30.06 847 25.01 2.1 35.7 58 -5.4 22.2
01:25 1017 30.03 847 25.01 1.7 35.1 58 -5.6 21.9
01:30 1017 30.03 847 25.01 1.7 35.1 58 -5.6 22
01:35 1017 30.03 847 25.01 1.6 34.9 59 -5.5 22
01:40 1017 30.03 847 25.01 1.3 34.3 62 -5.3 22.4
01:45 1018 30.06 847 25.01 0.9 33.7 60 -5.9 21.4
01:50 1018 30.06 847 25.01 1.5 34.6 57 -6.2 20.8
01:55 1018 30.06 847 25.01 1.8 35.3 55 -6.2 20.8
02:00 1018 30.06 847 25.01 2 35.5 55 -6.1 21.1
02:05 1018 30.06 847 25.01 2 35.5 55 -6 21.1
02:10 1018 30.06 847 25.01 1.9 35.4 56 -6 21.1
02:15 1018 30.06 847 25.01 1.8 35.2 57 -5.9 21.5
02:20 1018 30.06 847 25.01 1.6 34.8 57 -6 21.1
02:25 1018 30.06 847 25.01 1.5 34.8 58 -6 21.3
02:30 1018 30.06 847 25.01 1.6 34.8 56 -6.2 20.9
02:35 1018 30.06 847 25.01 1.7 35.1 55 -6.3 20.7
02:40 1018 30.06 847 25.01 1.8 35.3 56 -6.1 21.1
02:45 1018 30.06 847 25.01 1.5 34.7 58 -5.9 21.4
02:50 1018 30.06 847 25.01 1.3 34.3 58 -6.2 20.9
02:55 1018 30.06 847 25.01 1.3 34.3 57 -6.4 20.5
03:00 1018 30.06 847 25.01 1.4 34.5 56 -6.5 20.2
03:05 1018 30.06 847 25.01 1.5 34.7 57 -6.1 20.9
03:10 1018 30.06 847 25.01 1.3 34.3 58 -6.2 20.9
03:15 1018 30.06 847 25.01 1.1 33.9 59 -6.1 21.1
03:20 1018 30.06 847 25.01 0.8 33.5 58 -6.5 20.4
03:25 1018 30.06 847 25.01 1 33.8 57 -6.5 20.2
03:30 1018 30.06 847 25.01 1.2 34.1 56 -6.7 20
03:35 1018 30.06 847 25.01 1.2 34.1 56 -6.7 20
03:40 1018 30.06 847 25.01 1.3 34.3 56 -6.6 20
03:45 1018 30.06 847 25.01 1.1 34 57 -6.5 20.3
03:50 1018 30.06 847 25.01 1 33.8 58 -6.4 20.4
03:55 1017 30.03 847 25.01 1.1 33.9 58 -6.4 20.5
04:00 1017 30.03 847 25.01 0.9 33.7 59 -6.2 20.8
04:05 1018 30.06 847 25.01 0.6 33.1 60 -6.2 20.8
04:10 1018 30.06 847 25.01 0.4 32.7 60 -6.4 20.5
04:15 1018 30.06 847 25.01 0.6 33.1 58 -6.7 20
04:20 1018 30.06 847 25.01 0.9 33.5 59 -6.2 20.8
04:25 1018 30.06 847 25.01 1 33.8 56 -6.8 19.8
04:30 1018 30.06 847 25.01 1.4 34.6 55 -6.7 20
04:35 1018 30.06 847 25.01 1.5 34.8 56 -6.4 20.5
04:40 1018 30.06 847 25.01 1.4 34.6 58 -6.1 21.1
04:45 1018 30.06 847 25.01 1.4 34.4 58 -6 21.2
04:50 1018 30.06 847 25.01 1.3 34.3 58 -6.1 21
04:55 1018 30.06 847 25.01 1.3 34.3 57 -6.3 20.7
05:00 1018 30.06 847 25.01 1.4 34.5 57 -6.2 20.8
05:05 1018 30.06 847 25.01 1.5 34.8 55 -6.6 20.1
05:10 1018 30.06 847 25.01 1.8 35.2 54 -6.6 20.1
05:15 1018 30.06 847 25.01 2 35.6 54 -6.4 20.5
05:20 1018 30.06 847 25.01 2.1 35.7 55 -6.1 21
05:25 1018 30.06 847 25.01 2 35.7 55 -6.1 21
05:30 1018 30.06 847 25.01 1.9 35.5 56 -5.9 21.3
05:35 1018 30.06 847 25.01 1.9 35.5 54 -6.5 20.3
05:40 1018 30.06 847 25.01 2.2 36 53 -6.4 20.6
05:45 1018 30.06 847 25.01 2.3 36.1 54 -6.1 21.1
05:50 1018 30.06 847 25.01 2.3 36.1 58 -5.2 22.6
05:55 1018 30.06 847 25.01 1.7 35.1 61 -5.1 22.8
06:00 1018 30.06 847 25.01 1.2 34.2 59 -5.9 21.4
06:05 1018 30.06 847 25.01 1.5 34.6 58 -5.9 21.4
06:10 1018 30.06 847 25.01 1.7 35 57 -5.9 21.4
06:15 1018 30.06 847 25.01 1.8 35.2 58 -5.6 22
06:20 1018 30.06 847 25.01 1.8 35.2 60 -5.3 22.5
06:25 1018 30.06 847 25.01 1.7 35 60 -5.2 22.6
06:30 1018 30.06 847 25.01 1.6 35 59 -5.5 22.1
06:35 1018 30.06 847 25.01 1.7 35 59 -5.5 22.1
06:40 1018 30.06 847 25.01 1.8 35.2 58 -5.6 21.9
06:45 1018 30.06 847 25.01 1.9 35.5 57 -5.7 21.7
06:50 1018 30.06 848 25.04 2.1 35.8 56 -5.7 21.7
06:55 1018 30.06 848 25.04 2.3 36.1 55 -5.8 21.5
07:00 1018 30.06 848 25.04 2.5 36.5 54 -5.8 21.6
07:05 1018 30.06 848 25.04 2.6 36.7 56 -5.3 22.5
07:10 1019 30.09 848 25.04 2.5 36.4 61 -4.4 24.1
07:15 1019 30.09 848 25.04 2.3 36.2 55 -5.7 21.7
07:20 1019 30.09 848 25.04 2.6 36.8 54 -5.8 21.6
07:25 1019 30.09 848 25.04 2.8 37.1 55 -5.3 22.4
07:30 1019 30.09 848 25.04 3 37.5 51 -6.1 21.1
07:35 1019 30.09 848 25.04 3.3 38 50 -6.1 21
07:40 1019 30.09 848 25.04 3.6 38.5 50 -5.9 21.3
07:45 1019 30.09 848 25.04 3.8 38.8 50 -5.7 21.7
07:50 1019 30.09 848 25.04 4 39.1 49 -5.9 21.4
07:55 1019 30.09 848 25.04 4.2 39.5 47 -6 21.1
08:00 1019 30.09 848 25.04 4.3 39.7 48 -5.7 21.8
08:05 1019 30.09 848 25.04 4.3 39.8 48 -5.8 21.6
08:10 1019 30.09 848 25.04 4.5 40.1 44 -6.8 19.7
08:15 1019 30.09 848 25.04 4.8 40.6 43 -6.7 20
08:20 1019 30.09 848 25.04 4.8 40.6 43 -6.8 19.7
08:25 1019 30.09 848 25.04 5 41 42 -6.9 19.6
08:30 1019 30.09 848 25.04 5.2 41.3 42 -6.7 19.9
08:35 1019 30.09 848 25.04 5.4 41.7 43 -6.2 20.8
08:40 1019 30.09 848 25.04 5.1 41.1 44 -6.1 21
08:45 1019 30.09 848 25.04 5.1 41.3 45 -5.9 21.4
08:50 1019 30.09 848 25.04 5.4 41.7 44 -6 21.1
08:55 1019 30.09 848 25.04 5.6 42 43 -6.1 21
09:00 1019 30.09 848 25.04 6.1 42.9 41 -6.1 21
09:05 1019 30.09 848 25.04 6.5 43.7 40 -6.2 20.9
09:10 1019 30.09 848 25.04 6.6 43.9 39 -6.3 20.7
09:15 1019 30.09 848 25.04 7.1 44.8 38 -6.2 20.8
09:20 1019 30.09 848 25.04 7.3 45.2 36 -6.7 19.9
09:25 1019 30.09 848 25.04 7.2 44.9 37 -6.5 20.3
09:30 1019 30.09 848 25.04 7.5 45.5 35 -6.8 19.7
09:35 1019 30.09 848 25.04 7.6 45.6 35 -6.7 19.9
09:40 1019 30.09 848 25.04 7.8 46 35 -6.7 20
09:45 1019 30.09 848 25.04 8 46.4 33 -7.1 19.1
09:50 1019 30.09 848 25.04 8.2 46.7 34 -7 19.5
09:55 1018 30.06 848 25.04 8.4 47.2 32 -7.2 19
10:00 1018 30.06 848 25.04 8.3 47 32 -7.5 18.6
10:05 1018 30.06 848 25.04 8.4 47.1 32 -7.3 18.8
10:10 1018 30.06 848 25.04 8.6 47.5 31 -7.7 18.1
10:15 1018 30.06 848 25.04 8.7 47.6 32 -7.3 18.9
10:20 1018 30.06 848 25.04 8.7 47.6 31 -7.6 18.3
10:25 1018 30.06 848 25.04 9.1 48.3 30 -7.4 18.6
10:30 1018 30.06 848 25.04 9.5 49.1 30 -7.4 18.7
10:35 1018 30.06 847 25.01 9.7 49.4 30 -7.2 19.1
10:40 1018 30.06 847 25.01 9.4 48.9 30 -7.5 18.5
10:45 1018 30.06 847 25.01 9.5 49.1 29 -7.6 18.4
10:50 1018 30.06 847 25.01 9.9 49.9 27 -8.1 17.4
10:55 1018 30.06 847 25.01 10.3 50.5 26 -8.2 17.2
11:00 1018 30.06 847 25.01 10.3 50.5 27 -8.1 17.4
11:05 1018 30.06 847 25.01 10.5 50.8 26 -8.3 17
11:10 1018 30.06 847 25.01 11 51.7 25 -8.4 16.9
11:15 1018 30.06 847 25.01 10.7 51.3 25 -8.2 17.2
11:20 1018 30.06 847 25.01 10.4 50.8 26 -8.4 16.8
11:25 1018 30.06 847 25.01 11 51.9 25 -8.4 16.9
11:30 1018 30.06 847 25.01 10.9 51.7 25 -8.4 17
11:35 1018 30.06 847 25.01 11.4 52.4 24 -8.6 16.5
11:40 1017 30.03 847 25.01 11.4 52.5 23 -9 15.9
11:45 1017 30.03 847 25.01 11.3 52.3 23 -9 15.7
11:50 1017 30.03 846 24.98 11.1 51.9 23 -9.1 15.6
11:55 1017 30.03 846 24.98 11.2 52.2 22 -9.6 14.8
12:00 1017 30.03 846 24.98 11.4 52.5 22 -9.9 14.3
12:05 1017 30.03 846 24.98 12.4 54.4 21 -9.5 15
12:10 1017 30.03 846 24.98 12.4 54.3 19 -10.5 13.2
12:15 1017 30.03 846 24.98 12.6 54.6 19 -10.4 13.3
12:20 1017 30.03 846 24.98 13 55.5 19 -10 14
12:25 1017 30.03 846 24.98 13.2 55.7 19 -9.7 14.6
12:30 1017 30.03 846 24.98 13.3 55.9 20 -9 15.8
12:35 1017 30.03 846 24.98 13.1 55.6 20 -9.3 15.2
12:40 1017 30.03 846 24.98 12.8 55.1 20 -9.3 15.3
12:45 1017 30.03 846 24.98 13.6 56.4 18 -10 14
12:50 1017 30.03 846 24.98 13.6 56.6 18 -10.2 13.7
12:55 1017 30.03 846 24.98 13.6 56.5 19 -9.9 14.2
13:00 1017 30.03 846 24.98 14 57.1 19 -9.4 15.2
13:05 1017 30.03 846 24.98 13.8 56.8 20 -8.7 16.3
13:10 1017 30.03 846 24.98 13.4 56 21 -8.5 16.8
13:15 1017 30.03 846 24.98 13.4 56.2 20 -9 15.8
13:20 1017 30.03 846 24.98 13.8 56.8 20 -9.1 15.7
13:25 1017 30.03 846 24.98 14.3 57.7 19 -9 15.8
13:30 1017 30.03 846 24.98 14.3 57.8 19 -8.7 16.4
13:35 1017 30.03 846 24.98 13.4 56.1 20 -9.3 15.3
13:40 1017 30.03 846 24.98 13 55.4 21 -9.1 15.6
13:45 1017 30.03 846 24.98 12.9 55.3 18 -10.6 12.9
13:50 1017 30.03 846 24.98 13.1 55.5 17 -11.1 12
13:55 1017 30.03 846 24.98 13.7 56.7 15 -12.4 9.6
14:00 1017 30.03 846 24.98 13.8 56.9 15 -12.7 9.1
14:05 1017 30.03 846 24.98 13.8 56.8 15 -12.6 9.4
14:10 1017 30.03 846 24.98 13.9 57.1 15 -12.4 9.7
14:15 1017 30.03 846 24.98 14.3 57.8 14 -12.4 9.6
14:20 1017 30.03 846 24.98 14.6 58.3 15 -12 10.5
14:25 1017 30.03 846 24.98 14.1 57.4 14 -12.8 8.9
14:30 1017 30.03 846 24.98 14.4 57.9 15 -11.8 10.8
14:35 1017 30.03 846 24.98 14.6 58.2 14 -12.3 9.9
14:40 1017 30.03 846 24.98 14.4 57.9 14 -12.6 9.4
14:45 1017 30.03 846 24.98 14 57.3 15 -12.5 9.5
14:50 1017 30.03 846 24.98 14.1 57.4 15 -12.4 9.7
14:55 1017 30.03 846 24.98 14.1 57.5 15 -12.4 9.7
15:00 1017 30.03 846 24.98 14.3 57.8 15 -12.3 9.9
15:05 1017 30.03 846 24.98 14.1 57.3 15 -12.3 9.9
15:10 1017 30.03 846 24.98 14.1 57.3 15 -12.3 9.8
15:15 1017 30.03 846 24.98 14.2 57.6 15 -12 10.4
15:20 1017 30.03 846 24.98 14.4 58 15 -11.5 11.3
15:25 1017 30.03 846 24.98 14.2 57.6 15 -12 10.3
15:30 1017 30.03 846 24.98 14.2 57.5 15 -12.2 10
15:35 1017 30.03 846 24.98 14.3 57.7 15 -11.9 10.6
15:40 1017 30.03 846 24.98 14.3 57.7 15 -11.8 10.7
15:45 1017 30.03 846 24.98 14.2 57.6 15 -12 10.4
15:50 1017 30.03 846 24.98 14.3 57.8 15 -11.9 10.6
15:55 1017 30.03 846 24.98 14.1 57.4 15 -11.9 10.5
16:00 1017 30.03 846 24.98 14.3 57.7 15 -12 10.4
16:05 1017 30.03 846 24.98 14.5 58.2 15 -11.8 10.8
16:10 1017 30.03 846 24.98 14.6 58.2 15 -11.8 10.7
16:15 1017 30.03 846 24.98 14.6 58.3 15 -12 10.5
16:20 1017 30.03 846 24.98 14.4 57.9 15 -11.7 11
16:25 1017 30.03 846 24.98 14.4 57.9 15 -11.8 10.8
16:30 1017 30.03 846 24.98 14.5 58.1 15 -11.9 10.6
16:35 1017 30.03 846 24.98 14.6 58.4 15 -11.7 11
16:40 1017 30.03 846 24.98 14.5 58 15 -11.8 10.8
16:45 1017 30.03 846 24.98 14.8 58.6 15 -11.9 10.5
16:50 1017 30.03 846 24.98 14.8 58.6 15 -11.3 11.7
16:55 1017 30.03 846 24.98 14.4 58 15 -11.8 10.7
17:00 1017 30.03 846 24.98 14.9 58.9 15 -11.7 10.9
17:05 1017 30.03 846 24.98 14.9 58.7 15 -11.7 10.9
17:10 1017 30.03 846 24.98 14.6 58.2 15 -11.5 11.4
17:15 1017 30.03 846 24.98 14.4 57.9 16 -11 12.3
17:20 1017 30.03 846 24.98 14.4 57.8 15 -11.6 11.2
17:25 1017 30.03 846 24.98 14.2 57.6 17 -10.7 12.8
17:30 1017 30.03 846 24.98 14 57.2 17 -10.5 13.1
17:35 1017 30.03 846 24.98 13.7 56.7 17 -11.1 12
17:40 1017 30.03 846 24.98 13.3 56 17 -11.2 11.8
17:45 1017 30.03 846 24.98 13.2 55.7 17 -11.4 11.4
17:50 1017 30.03 846 24.98 13.1 55.6 18 -10.7 12.7
17:55 1017 30.03 846 24.98 13 55.3 18 -10.7 12.7
18:00 1017 30.03 846 24.98 12.9 55.2 18 -10.6 12.9
18:05 1017 30.03 846 24.98 12.8 55 19 -10.5 13.1
18:10 1017 30.03 846 24.98 12.8 55 18 -10.7 12.7
18:15 1017 30.03 846 24.98 12.5 54.4 19 -10.4 13.3
18:20 1017 30.03 846 24.98 12.3 54.1 19 -10.5 13
18:25 1017 30.03 846 24.98 12.2 53.9 19 -10.5 13.1
18:30 1017 30.03 846 24.98 12.1 53.8 20 -10.2 13.7
18:35 1017 30.03 846 24.98 12 53.5 20 -10.2 13.6
18:40 1017 30.03 846 24.98 11.8 53.2 21 -9.9 14.2
18:45 1017 30.03 846 24.98 11.6 53 21 -10.1 13.9
18:50 1017 30.03 846 24.98 11.5 52.7 21 -10.3 13.5
18:55 1017 30.03 846 24.98 11.3 52.4 22 -9.9 14.2
19:00 1017 30.03 846 24.98 11.2 52.1 21 -10.1 13.8
19:05 1017 30.03 846 24.98 10.9 51.6 22 -10.1 13.8
19:10 1017 30.03 846 24.98 10.7 51.3 22 -10.3 13.5
19:15 1017 30.03 846 24.98 10.5 51 23 -10 14
19:20 1017 30.03 846 24.98 10.2 50.4 24 -9.6 14.8
19:25 1017 30.03 846 24.98 9.9 49.7 28 -7.7 18.1
19:30 1017 30.03 846 24.98 8.7 47.7 32 -7.2 19
19:35 1017 30.03 846 24.98 8.1 46.6 33 -7.1 19.3
19:40 1017 30.03 846 24.98 7.7 45.9 34 -7 19.4
19:45 1017 30.03 846 24.98 7.6 45.7 34 -7.1 19.3
19:50 1017 30.03 846 24.98 7.6 45.7 35 -7 19.5
19:55 1017 30.03 846 24.98 7.4 45.3 36 -6.8 19.8
20:00 1017 30.03 847 25.01 7.2 44.9 36 -6.9 19.6
20:05 1017 30.03 847 25.01 7.1 44.8 36 -7.1 19.3
20:10 1017 30.03 847 25.01 7.1 44.7 36 -7.1 19.3
20:15 1018 30.06 847 25.01 6.9 44.4 38 -6.6 20.2
20:20 1018 30.06 847 25.01 6.6 43.8 38 -6.8 19.8
20:25 1018 30.06 847 25.01 6.4 43.6 40 -6.3 20.6
20:30 1018 30.06 847 25.01 6.2 43.2 40 -6.5 20.4
20:35 1018 30.06 847 25.01 6.1 43 42 -5.8 21.6
20:40 1018 30.06 847 25.01 5.7 42.3 40 -6.7 19.9
20:45 1018 30.06 847 25.01 6.3 43.3 37 -7.4 18.6
20:50 1018 30.06 847 25.01 6.3 43.4 37 -7.3 18.9
20:55 1018 30.06 847 25.01 6.2 43.1 37 -7.3 18.9
21:00 1018 30.06 847 25.01 6.1 42.9 38 -7.1 19.1
21:05 1018 30.06 847 25.01 5.9 42.6 39 -7.1 19.1
21:10 1018 30.06 847 25.01 5.8 42.4 38 -7.4 18.7
21:15 1018 30.06 847 25.01 5.7 42.3 39 -7.2 19
21:20 1018 30.06 847 25.01 5.7 42.3 39 -7.3 18.9
21:25 1018 30.06 847 25.01 5.8 42.4 40 -6.8 19.8
21:30 1018 30.06 847 25.01 5.5 41.9 41 -6.7 19.9
21:35 1018 30.06 847 25.01 5.5 41.8 41 -6.6 20.1
21:40 1018 30.06 847 25.01 5.4 41.7 41 -6.9 19.5
21:45 1018 30.06 847 25.01 5.4 41.7 40 -7 19.3
21:50 1018 30.06 847 25.01 5.6 42.1 39 -7.1 19.2
21:55 1018 30.06 847 25.01 5.7 42.3 39 -7.2 19.1
22:00 1018 30.06 847 25.01 5.5 42 40 -6.9 19.7
22:05 1018 30.06 847 25.01 5 41.1 43 -6.5 20.4
22:10 1018 30.06 847 25.01 4.5 40.1 45 -6.5 20.3
22:15 1018 30.06 847 25.01 4.4 39.9 43 -7 19.5
22:20 1018 30.06 847 25.01 4.8 40.7 40 -7.8 18
22:25 1018 30.06 847 25.01 5.3 41.5 38 -7.8 18
22:30 1018 30.06 847 25.01 5.2 41.4 38 -8 17.6
22:35 1018 30.06 847 25.01 5.3 41.5 37 -8.1 17.4
22:40 1018 30.06 847 25.01 5.3 41.6 36 -8.5 16.6
22:45 1018 30.06 847 25.01 5.6 42.1 36 -8.3 17.1
22:50 1018 30.06 847 25.01 5.7 42.2 36 -8.2 17.3
22:55 1018 30.06 847 25.01 5.7 42.3 36 -8.3 17.1
23:00 1018 30.06 847 25.01 5.6 42.1 36 -8.2 17.3
23:05 1018 30.06 847 25.01 5.5 41.9 38 -7.8 18
23:10 1017 30.03 847 25.01 5.2 41.4 39 -7.6 18.3
23:15 1018 30.06 847 25.01 5.1 41.2 39 -7.9 17.8
23:20 1017 30.03 847 25.01 5.1 41.2 39 -7.6 18.3
23:25 1017 30.03 847 25.01 4.9 40.9 40 -7.6 18.3
23:30 1017 30.03 847 25.01 4.9 40.8 40 -7.6 18.3
23:35 1017 30.03 847 25.01 4.8 40.6 41 -7.2 19
23:40 1018 30.06 847 25.01 4.5 40.1 43 -7.1 19.2
23:45 1018 30.06 847 25.01 4.3 39.7 43 -7.4 18.7
23:50 1018 30.06 847 25.01 4.2 39.6 43 -7.2 19.1
23:55 1018 30.06 847 25.01 4 39.2 44 -7.1 19.2
24:00 1018 30.06 847 25.01 4 39.2 44 -7.2 19